Time;durP1;ratioP1;P1;durP2;ratioP2;P2;SDS_P1;SDS_P2;PMS_P1;PMS_P2;Temp;Humidity;BMP_temperature;BMP_pressure;BME280_temperature;BME280_humidity;BME280_pressure;Samples;Min_cycle;Max_cycle;Signal;HPM_P1;HPM_P2
2022/06/27 00:00:57;;;;;;;8.07;2.93;;;;;;;20.08;100.00;100122.09;6302728;28;20120;-69
2022/06/27 00:03:57;;;;;;;3.73;3.13;;;;;;;19.99;100.00;100119.53;6286009;28;20044;-70
2022/06/27 00:06:58;;;;;;;4.87;2.70;;;;;;;19.92;100.00;100124.59;6302670;28;20497;-69
2022/06/27 00:09:59;;;;;;;4.63;2.80;;;;;;;19.79;100.00;100117.03;6320420;28;20036;-69
2022/06/27 00:13:03;;;;;;;3.33;2.70;;;;;;;19.86;100.00;100117.25;6302616;28;20044;-69
2022/06/27 00:16:04;;;;;;;4.75;3.00;;;;;;;19.85;100.00;100123.53;6320411;28;20044;-69
2022/06/27 00:19:06;;;;;;;4.88;2.90;;;;;;;19.78;100.00;100119.84;6285873;28;20040;-69
2022/06/27 00:22:07;;;;;;;7.13;3.00;;;;;;;19.80;100.00;100123.16;6285908;28;20044;-69
2022/06/27 00:25:10;;;;;;;3.83;3.13;;;;;;;19.78;100.00;100127.78;6302319;28;20446;-69
2022/06/27 00:28:10;;;;;;;5.03;2.78;;;;;;;19.76;100.00;100125.28;6320374;28;20338;-70
2022/06/27 00:31:11;;;;;;;3.77;2.93;;;;;;;19.71;100.00;100127.56;6285907;28;20283;-70
2022/06/27 00:34:12;;;;;;;3.47;2.70;;;;;;;19.67;100.00;100124.34;6302456;28;20044;-70
2022/06/27 00:37:13;;;;;;;6.50;3.30;;;;;;;19.59;100.00;100121.63;6320138;28;20535;-70
2022/06/27 00:40:15;;;;;;;8.23;3.28;;;;;;;19.50;100.00;100131.28;6302220;28;20040;-69
2022/06/27 00:43:15;;;;;;;14.13;3.73;;;;;;;19.45;100.00;100133.53;6320063;28;20493;-69
2022/06/27 00:46:16;;;;;;;4.07;3.03;;;;;;;19.48;100.00;100135.06;6268714;28;20080;-69
2022/06/27 00:49:17;;;;;;;5.43;2.97;;;;;;;19.46;100.00;100135.22;6301947;28;20086;-69
2022/06/27 00:52:19;;;;;;;5.45;3.30;;;;;;;19.42;100.00;100127.72;6302154;28;20478;-69
2022/06/27 00:55:20;;;;;;;4.30;3.40;;;;;;;19.34;100.00;100131.13;6320082;28;20051;-69
2022/06/27 00:58:21;;;;;;;5.32;3.40;;;;;;;19.31;100.00;100132.25;6301939;28;20047;-69
2022/06/27 01:01:22;;;;;;;4.83;3.03;;;;;;;19.35;100.00;100132.75;6302013;28;20478;-69
2022/06/27 01:04:23;;;;;;;3.87;3.07;;;;;;;19.27;100.00;100130.03;6268809;28;20455;-70
2022/06/27 01:07:24;;;;;;;8.13;2.85;;;;;;;19.22;100.00;100130.47;6302043;28;20042;-68
2022/06/27 01:10:25;;;;;;;7.60;3.90;;;;;;;19.17;100.00;100118.66;6323326;28;20040;-70
2022/06/27 01:13:26;;;;;;;7.33;3.13;;;;;;;19.10;100.00;100115.78;6273471;28;20040;-70
2022/06/27 01:16:28;;;;;;;5.67;3.40;;;;;;;19.05;100.00;100120.69;6306202;28;20097;-69
2022/06/27 01:19:31;;;;;;;3.13;2.83;;;;;;;19.01;100.00;100112.22;6323940;28;20280;-69
2022/06/27 01:22:32;;;;;;;3.83;2.90;;;;;;;19.00;100.00;100117.66;6273437;28;20101;-69
2022/06/27 01:25:35;;;;;;;5.43;3.55;;;;;;;18.91;100.00;100112.25;6323860;28;20037;-69
2022/06/27 01:28:36;;;;;;;4.85;2.95;;;;;;;18.91;100.00;100120.19;6305965;28;20097;-70
2022/06/27 01:31:40;;;;;;;5.63;3.17;;;;;;;18.91;100.00;100114.91;6289331;28;20051;-69
2022/06/27 01:34:41;;;;;;;8.05;2.83;;;;;;;18.82;100.00;100113.16;6323777;28;20040;-69
2022/06/27 01:37:42;;;;;;;6.23;3.03;;;;;;;18.94;100.00;100116.41;6305822;28;20055;-69
2022/06/27 01:40:42;;;;;;;5.73;3.23;;;;;;;19.01;100.00;100111.41;6305777;28;20032;-69
2022/06/27 01:43:48;;;;;;;5.22;2.90;;;;;;;18.96;100.00;100116.28;6305923;28;20037;-69
2022/06/27 01:46:54;;;;;;;3.28;2.75;;;;;;;18.93;100.00;100112.13;6323449;28;20071;-69
2022/06/27 01:49:55;;;;;;;4.68;2.80;;;;;;;18.88;100.00;100117.00;6323488;28;20044;-70
2022/06/27 01:52:56;;;;;;;4.70;3.03;;;;;;;18.70;100.00;100114.28;6305405;28;20044;-70
2022/06/27 01:55:57;;;;;;;6.15;3.00;;;;;;;18.70;100.00;100122.19;6288571;28;20482;-69
2022/06/27 01:59:02;;;;;;;5.70;3.40;;;;;;;18.67;100.00;100114.53;6323313;28;20040;-70
2022/06/27 02:02:05;;;;;;;8.93;3.78;;;;;;;18.67;100.00;100111.91;6323153;28;20105;-69
2022/06/27 02:05:06;;;;;;;4.47;3.13;;;;;;;18.62;100.00;100117.63;6322790;28;20044;-69
2022/06/27 02:08:08;;;;;;;4.50;3.03;;;;;;;18.35;100.00;100114.94;6272259;28;20139;-69
2022/06/27 02:11:09;;;;;;;5.35;3.40;;;;;;;18.44;100.00;100109.59;6322829;28;20043;-69
2022/06/27 02:14:10;;;;;;;3.80;3.30;;;;;;;18.46;100.00;100117.41;6271860;28;20039;-69
2022/06/27 02:17:11;;;;;;;7.00;3.10;;;;;;;18.41;100.00;100117.81;6304729;28;20414;-69
2022/06/27 02:20:13;;;;;;;6.80;3.57;;;;;;;18.41;100.00;100117.81;6271448;28;20383;-69
2022/06/27 02:23:14;;;;;;;5.03;3.22;;;;;;;18.44;100.00;100121.97;6305039;28;20039;-69
2022/06/27 02:26:16;;;;;;;6.00;3.40;;;;;;;18.40;100.00;100115.31;6304460;28;20116;-69
2022/06/27 02:29:17;;;;;;;7.55;3.05;;;;;;;18.46;100.00;100115.56;6304259;28;20494;-69
2022/06/27 02:32:21;;;;;;;5.68;3.30;;;;;;;18.40;100.00;100131.16;6287880;28;20048;-70
2022/06/27 02:35:22;;;;;;;3.30;3.00;;;;;;;18.39;100.00;100125.06;6322364;28;20083;-69
2022/06/27 02:38:23;;;;;;;7.13;3.17;;;;;;;18.38;100.00;100123.38;6287549;28;20040;-69
2022/06/27 02:41:27;;;;;;;3.53;3.00;;;;;;;18.37;100.00;100134.94;6287791;28;20032;-69
2022/06/27 02:44:29;;;;;;;5.07;3.25;;;;;;;18.31;100.00;100125.75;6287047;28;20052;-69
2022/06/27 02:47:32;;;;;;;5.28;3.40;;;;;;;18.26;100.00;100135.09;6321974;28;20040;-69
2022/06/27 02:50:37;;;;;;;6.15;2.95;;;;;;;18.30;100.00;100133.81;6321905;28;20044;-70
2022/06/27 02:54:02;;;;;;;5.68;3.08;;;;;;;18.26;100.00;100141.22;6321919;28;20044;-70
2022/06/27 02:57:15;;;;;;;6.55;3.00;;;;;;;18.39;100.00;100142.69;6312205;28;20052;-69
2022/06/27 03:00:17;;;;;;;10.00;3.33;;;;;;;18.40;100.00;100137.28;6321836;28;20040;-69
2022/06/27 03:03:17;;;;;;;;;;;;;;;18.36;100.00;100138.53;6303963;28;20071;-69
2022/06/27 03:06:18;;;;;;;5.13;3.20;;;;;;;18.36;100.00;100133.25;6303487;28;19920;-69
2022/06/27 03:09:20;;;;;;;5.43;2.85;;;;;;;18.37;100.00;100137.59;6303616;28;20040;-69
2022/06/27 03:12:21;;;;;;;8.15;3.53;;;;;;;18.33;100.00;100136.19;6286944;28;20379;-69
2022/06/27 03:15:24;;;;;;;4.28;3.45;;;;;;;18.25;100.00;100139.53;6303467;28;20048;-69
2022/06/27 03:18:26;;;;;;;5.13;3.58;;;;;;;18.25;100.00;100141.34;6287483;28;20123;-69
2022/06/27 03:21:27;;;;;;;4.15;3.42;;;;;;;18.26;100.00;100148.28;6321321;28;20048;-70
2022/06/27 03:24:28;;;;;;;6.47;3.80;;;;;;;18.10;100.00;100144.41;6303208;28;20056;-69
2022/06/27 03:27:29;;;;;;;5.03;3.37;;;;;;;17.92;100.00;100148.72;6303159;28;20402;-69
2022/06/27 03:30:30;;;;;;;6.18;3.25;;;;;;;17.85;100.00;100142.31;6286762;28;20040;-69
2022/06/27 03:33:31;;;;;;;11.82;3.45;;;;;;;17.76;100.00;100143.13;6320603;28;20032;-69
2022/06/27 03:36:33;;;;;;;11.98;3.88;;;;;;;17.76;100.00;100140.50;6321031;28;20079;-69
2022/06/27 03:39:34;;;;;;;6.53;3.40;;;;;;;17.91;100.00;100152.31;6286421;28;20486;-69
2022/06/27 03:42:35;;;;;;;5.82;3.50;;;;;;;17.94;100.00;100153.88;6320874;28;20815;-69
2022/06/27 03:45:36;;;;;;;4.35;3.25;;;;;;;17.83;100.00;100150.41;6320682;28;20379;-69
2022/06/27 03:51:57;;;;;;;8.20;4.00;;;;;;;17.84;100.00;100152.06;6305502;28;20456;-69
2022/06/27 03:54:59;;;;;;;7.55;3.70;;;;;;;17.98;100.00;100150.00;6286462;28;20044;-69
2022/06/27 03:57:59;;;;;;;4.75;4.07;;;;;;;18.04;100.00;100154.72;6286223;28;20040;-69
2022/06/27 04:01:01;;;;;;;5.45;3.05;;;;;;;18.00;100.00;100151.50;6302822;28;20040;-69
2022/06/27 04:04:02;;;;;;;7.32;3.58;;;;;;;18.02;100.00;100149.56;6285913;28;20192;-69
2022/06/27 04:07:03;;;;;;;4.40;3.47;;;;;;;18.12;100.00;100153.03;6286070;28;20040;-69
2022/06/27 04:10:05;;;;;;;6.65;4.03;;;;;;;18.04;100.00;100158.19;6302597;28;20785;-70
2022/06/27 04:13:06;;;;;;;;;;;;;;;18.06;100.00;100155.41;6302961;28;20036;-69
2022/06/27 04:16:07;;;;;;;11.07;3.15;;;;;;;18.27;100.00;100161.34;6302536;28;19924;-69
2022/06/27 04:19:10;;;;;;;6.22;3.45;;;;;;;18.34;100.00;100161.63;6302468;28;20048;-69
2022/06/27 04:22:11;;;;;;;6.40;3.50;;;;;;;18.38;100.00;100170.09;6302676;28;20123;-70
2022/06/27 04:25:12;;;;;;;9.10;3.83;;;;;;;18.50;100.00;100175.09;6302385;28;20351;-69
2022/06/27 04:28:13;;;;;;;;;;;;;;;18.59;100.00;100178.66;6320983;28;20043;-69
2022/06/27 04:31:14;;;;;;;5.10;3.42;;;;;;;18.62;100.00;100174.94;6320129;28;19920;-69
2022/06/27 04:34:15;;;;;;;7.90;3.90;;;;;;;18.58;100.00;100179.66;6285841;28;20487;-70
2022/06/27 04:37:16;;;;;;;6.82;3.40;;;;;;;18.62;100.00;100181.03;6302293;28;20406;-70
2022/06/27 04:40:20;;;;;;;3.83;3.50;;;;;;;18.69;100.00;100183.94;6285484;28;20460;-69
2022/06/27 04:43:21;;;;;;;4.75;3.20;;;;;;;18.72;100.00;100184.50;6286575;28;20051;-69
2022/06/27 04:46:22;;;;;;;7.07;3.80;;;;;;;18.74;100.00;100181.72;6290047;28;20056;-70
2022/06/27 04:49:26;;;;;;;9.10;3.53;;;;;;;18.80;100.00;100183.81;6306912;28;20051;-69
2022/06/27 04:52:27;;;;;;;8.75;3.95;;;;;;;18.83;100.00;100172.13;6324745;28;20098;-69
2022/06/27 04:55:28;;;;;;;4.57;3.83;;;;;;;18.91;100.00;100182.81;6290109;28;20048;-70
2022/06/27 04:58:29;;;;;;;7.78;3.70;;;;;;;18.96;100.00;100179.72;6324714;28;20040;-69
2022/06/27 05:01:32;;;;;;;6.07;3.17;;;;;;;19.06;100.00;100184.00;6306670;28;20036;-68
2022/06/27 05:04:33;;;;;;;3.63;3.28;;;;;;;19.17;100.00;100190.94;6306447;28;20474;-69
2022/06/27 05:07:34;;;;;;;10.30;3.60;;;;;;;19.25;100.00;100192.81;6306468;28;20047;-69
2022/06/27 05:10:36;;;;;;;5.07;3.30;;;;;;;19.40;100.00;100201.13;6276836;28;20101;-70
2022/06/27 05:13:37;;;;;;;6.05;3.28;;;;;;;19.52;100.00;100206.06;6316008;28;20488;-70
2022/06/27 05:16:38;;;;;;;7.93;3.70;;;;;;;19.59;100.00;100195.72;6341439;28;20045;-70
2022/06/27 05:19:39;;;;;;;5.00;3.50;;;;;;;19.70;100.00;100200.81;6325685;28;20449;-69
2022/06/27 05:22:43;;;;;;;5.35;3.22;;;;;;;19.75;100.00;100195.09;6338226;28;20063;-69
2022/06/27 05:25:44;;;;;;;9.05;3.05;;;;;;;19.86;100.00;100194.88;6308173;28;20046;-70
2022/06/27 05:28:45;;;;;;;10.33;3.60;;;;;;;20.02;100.00;100203.97;6327745;28;20480;-69
2022/06/27 05:31:48;;;;;;;7.38;2.85;;;;;;;20.11;100.00;100205.69;6344700;28;20040;-69
2022/06/27 05:34:49;;;;;;;4.25;3.20;;;;;;;20.25;100.00;100207.00;6297620;28;20048;-69
2022/06/27 05:37:51;;;;;;;11.23;3.37;;;;;;;20.37;100.00;100212.91;6305748;28;20044;-69
2022/06/27 05:40:53;;;;;;;7.65;2.83;;;;;;;20.53;100.00;100218.31;6305724;28;20070;-69
2022/06/27 05:43:55;;;;;;;4.30;2.83;;;;;;;20.67;100.00;100215.16;6305609;28;20123;-70
2022/06/27 05:46:56;;;;;;;4.63;3.03;;;;;;;20.80;100.00;100219.22;6323677;28;20490;-70
2022/06/27 05:49:59;;;;;;;8.30;3.47;;;;;;;20.89;100.00;100229.69;6305586;28;20093;-70
2022/06/27 05:53:01;;;;;;;6.38;3.20;;;;;;;21.05;100.00;100230.78;6305378;28;20474;-69
2022/06/27 05:56:03;;;;;;;7.85;3.25;;;;;;;21.19;100.00;100239.97;6336072;28;20054;-69
2022/06/27 05:59:05;;;;;;;4.57;3.17;;;;;;;21.34;99.15;100243.69;6313878;28;20044;-70
2022/06/27 06:02:09;;;;;;;7.07;2.97;;;;;;;21.42;97.34;100242.91;6313019;28;20047;-70
2022/06/27 06:05:11;;;;;;;6.85;3.50;;;;;;;21.63;96.69;100248.66;6299878;28;20489;-70
2022/06/27 06:08:14;;;;;;;11.88;3.42;;;;;;;21.83;95.68;100249.22;6336304;28;20040;-70
2022/06/27 06:11:15;;;;;;;12.85;3.47;;;;;;;22.02;93.47;100252.59;6304741;28;20044;-69
2022/06/27 06:14:19;;;;;;;9.97;3.20;;;;;;;22.17;90.63;100245.63;6323008;28;20048;-70
2022/06/27 06:17:21;;;;;;;7.18;2.97;;;;;;;22.36;88.41;100252.47;6330257;28;20765;-70
2022/06/27 06:20:22;;;;;;;6.68;2.70;;;;;;;22.53;85.25;100256.00;6323760;28;20040;-70
2022/06/27 06:23:24;;;;;;;7.05;2.75;;;;;;;22.68;82.21;100249.00;6322502;28;20070;-70
2022/06/27 06:26:24;;;;;;;4.75;3.05;;;;;;;22.79;84.71;100250.47;6288047;28;20042;-70
2022/06/27 06:29:25;;;;;;;7.33;2.93;;;;;;;22.97;82.13;100257.44;6292550;28;20032;-70
2022/06/27 06:32:27;;;;;;;3.67;2.70;;;;;;;23.15;81.36;100271.41;6337800;28;20059;-71
2022/06/27 06:35:30;;;;;;;6.82;2.90;;;;;;;23.50;82.60;100269.31;6289508;28;20040;-71
2022/06/27 06:38:31;;;;;;;5.10;2.55;;;;;;;23.69;76.07;100263.56;6307974;28;20048;-70
2022/06/27 06:41:33;;;;;;;;;;;;;;;23.93;75.16;100270.63;6296303;28;20048;-70
2022/06/27 06:44:34;;;;;;;3.15;2.50;;;;;;;24.02;76.21;100267.91;6334399;28;19927;-69
2022/06/27 06:47:42;;;;;;;5.43;2.53;;;;;;;24.33;74.51;100275.84;6306570;28;20036;-70
2022/06/27 06:50:43;;;;;;;6.03;2.67;;;;;;;24.37;72.56;100271.00;6321706;28;20044;-70
2022/06/27 06:53:45;;;;;;;8.77;2.25;;;;;;;24.58;72.46;100281.03;6286386;28;20036;-70
2022/06/27 06:56:49;;;;;;;5.50;2.67;;;;;;;24.77;71.22;100283.22;6303115;28;20077;-70
2022/06/27 06:59:50;;;;;;;3.47;2.42;;;;;;;24.90;66.64;100277.25;6286233;28;20047;-69
2022/06/27 07:02:52;;;;;;;3.55;2.40;;;;;;;24.98;66.85;100281.66;6302792;28;20537;-70
2022/06/27 07:05:54;;;;;;;7.55;2.33;;;;;;;25.24;69.57;100278.59;6285938;28;20047;-70
2022/06/27 07:08:57;;;;;;;5.43;2.30;;;;;;;25.46;68.88;100272.31;6286706;28;20047;-70
2022/06/27 07:12:01;;;;;;;4.55;2.22;;;;;;;25.67;67.73;100268.88;6321314;28;20036;-71
2022/06/27 07:15:03;;;;;;;7.95;2.50;;;;;;;25.59;66.07;100270.84;6287402;28;20518;-70
2022/06/27 07:18:05;;;;;;;5.43;2.58;;;;;;;25.89;66.86;100277.81;6320111;28;20040;-71
2022/06/27 07:21:06;;;;;;;4.25;2.28;;;;;;;26.08;63.96;100280.91;6303224;28;20071;-70
2022/06/27 07:24:09;;;;;;;5.00;2.20;;;;;;;26.16;61.72;100274.63;6302851;28;20044;-71
2022/06/27 07:27:12;;;;;;;3.75;2.17;;;;;;;26.36;62.64;100277.47;6286277;28;20095;-71
2022/06/27 07:30:14;;;;;;;5.32;2.50;;;;;;;26.34;63.70;100278.50;6270306;28;20040;-71
2022/06/27 07:33:16;;;;;;;3.83;1.80;;;;;;;26.62;60.06;100277.72;6302742;28;20044;-70
2022/06/27 07:36:17;;;;;;;8.13;2.03;;;;;;;26.86;59.39;100271.13;6286269;28;20461;-70
2022/06/27 07:39:18;;;;;;;5.43;2.30;;;;;;;27.04;60.44;100272.50;6302857;28;20040;-70
2022/06/27 07:42:19;;;;;;;2.55;2.20;;;;;;;26.87;57.19;100277.31;6302626;28;20040;-70
2022/06/27 07:45:26;;;;;;;7.05;2.20;;;;;;;27.05;61.43;100272.28;6285809;28;20065;-70
2022/06/27 07:48:27;;;;;;;3.47;2.10;;;;;;;27.14;58.02;100267.63;6320498;28;20032;-70
2022/06/27 07:51:27;;;;;;;3.92;2.00;;;;;;;27.22;56.18;100266.63;6302436;28;20093;-71
2022/06/27 07:54:28;;;;;;;3.65;1.70;;;;;;;27.56;56.43;100268.47;6302480;28;20052;-70
2022/06/27 07:57:30;;;;;;;2.20;2.00;;;;;;;27.82;54.78;100264.22;6285818;28;20066;-71
2022/06/27 08:00:31;;;;;;;5.03;1.80;;;;;;;27.94;51.93;100259.97;6269306;28;20405;-70
2022/06/27 08:03:44;;;;;;;7.90;2.72;;;;;;;28.10;52.41;100261.44;6269544;28;20094;-71
2022/06/27 08:06:50;;;;;;;5.85;1.80;;;;;;;28.26;53.74;100262.94;6304165;28;20074;-71
2022/06/27 08:09:51;;;;;;;3.17;1.77;;;;;;;28.28;48.66;100261.69;6303053;28;20062;-71
2022/06/27 08:12:54;;;;;;;3.20;2.00;;;;;;;28.55;56.08;100266.28;6302383;28;20048;-70
2022/06/27 08:15:56;;;;;;;3.22;1.80;;;;;;;28.86;50.20;100265.63;6269730;28;20044;-70
2022/06/27 08:18:57;;;;;;;;;;;;;;;28.78;45.56;100264.00;6323746;28;20544;-71
2022/06/27 08:22:00;;;;;;;6.15;1.60;;;;;;;28.98;47.52;100257.78;6290438;28;19926;-70
2022/06/27 08:25:01;;;;;;;5.63;1.92;;;;;;;29.10;45.70;100267.69;6307132;28;20048;-70
2022/06/27 08:28:02;;;;;;;4.32;1.60;;;;;;;29.14;45.24;100262.75;6290876;28;20044;-71
2022/06/27 08:31:07;;;;;;;4.80;1.50;;;;;;;28.83;44.38;100268.75;6273967;28;20078;-70
2022/06/27 08:34:08;;;;;;;4.78;1.67;;;;;;;29.20;43.80;100263.72;6325114;28;20526;-70
2022/06/27 08:37:10;;;;;;;6.22;1.58;;;;;;;29.56;44.61;100265.91;6306952;28;20048;-70
2022/06/27 08:40:13;;;;;;;3.67;1.67;;;;;;;29.65;45.87;100269.16;6290379;28;20082;-70
2022/06/27 08:43:15;;;;;;;1.75;1.40;;;;;;;29.72;42.06;100261.94;6290215;28;20044;-70
2022/06/27 08:46:16;;;;;;;1.98;1.67;;;;;;;29.82;44.42;100256.91;6306310;28;20048;-71
2022/06/27 08:49:17;;;;;;;3.40;1.63;;;;;;;30.11;44.90;100263.56;6306462;28;20501;-71
2022/06/27 08:52:19;;;;;;;2.22;1.40;;;;;;;30.35;47.19;100258.44;6306624;28;20048;-71
2022/06/27 08:55:21;;;;;;;4.78;1.55;;;;;;;30.08;43.84;100253.25;6324468;28;20036;-71
2022/06/27 08:58:23;;;;;;;1.70;1.60;;;;;;;30.54;45.89;100248.59;6306663;28;20404;-70
2022/06/27 09:01:27;;;;;;;6.22;1.58;;;;;;;30.54;42.34;100245.91;6306123;28;20052;-69
2022/06/27 09:04:28;;;;;;;4.28;1.58;;;;;;;30.55;38.10;100247.53;6324285;28;20486;-70
2022/06/27 09:08:05;;;;;;;3.75;1.50;;;;;;;30.83;38.28;100246.25;6306334;28;20097;-73
2022/06/27 09:11:09;;;;;;;2.28;1.40;;;;;;;30.67;38.47;100240.38;6225616;28;20133;-71
2022/06/27 09:14:30;;;;;;;4.22;1.65;;;;;;;30.80;43.24;100238.59;6324118;28;20675;-71
2022/06/27 09:17:31;;;;;;;;;;;;;;;31.15;44.04;100238.06;6324544;28;20101;-71
2022/06/27 09:20:57;;;;;;;3.97;1.50;;;;;;;31.38;37.61;100237.38;6305745;28;20289;-71
2022/06/27 09:24:00;;;;;;;7.40;1.42;;;;;;;31.20;39.16;100235.53;6289039;28;20288;-70
2022/06/27 09:27:03;;;;;;;4.38;1.42;;;;;;;31.56;35.85;100226.59;6305581;28;20479;-71
2022/06/27 09:30:22;;;;;;;3.85;1.50;;;;;;;31.29;34.80;100223.38;6288511;28;20039;-72
2022/06/27 09:33:24;;;;;;;1.77;1.20;;;;;;;31.59;37.71;100233.41;6324343;28;20401;-71
2022/06/27 09:36:28;;;;;;;3.80;1.40;;;;;;;31.83;35.86;100228.94;6305930;28;20058;-71
2022/06/27 09:39:39;;;;;;;3.90;1.30;;;;;;;32.07;34.99;100227.97;6309790;28;20078;-71
2022/06/27 09:42:42;;;;;;;2.58;1.60;;;;;;;31.55;34.97;100221.44;6317496;28;20044;-71
2022/06/27 09:45:44;;;;;;;4.18;1.33;;;;;;;31.90;38.75;100224.28;6305420;28;20078;-72
2022/06/27 09:48:46;;;;;;;3.10;1.23;;;;;;;32.30;36.42;100224.50;6323420;28;20500;-71
2022/06/27 09:51:48;;;;;;;3.45;1.60;;;;;;;32.45;35.49;100229.47;6288710;28;20051;-71
2022/06/27 09:54:51;;;;;;;2.17;1.30;;;;;;;32.70;35.04;100234.66;6323222;28;20039;-71
2022/06/27 09:57:53;;;;;;;4.20;1.45;;;;;;;32.91;36.26;100227.81;6323185;28;20044;-71
2022/06/27 10:00:54;;;;;;;4.07;1.38;;;;;;;32.99;37.74;100226.66;6288134;28;20048;-71
2022/06/27 10:04:01;;;;;;;3.42;1.55;;;;;;;32.85;32.56;100228.78;6289754;28;20040;-71
2022/06/27 10:07:05;;;;;;;1.75;1.20;;;;;;;33.12;33.07;100226.41;6288243;28;20091;-70
2022/06/27 10:10:07;;;;;;;7.20;1.60;;;;;;;32.73;33.78;100217.97;6304718;28;20355;-71
2022/06/27 10:13:11;;;;;;;2.25;1.38;;;;;;;33.03;35.58;100210.75;6305063;28;20095;-71
2022/06/27 10:16:16;;;;;;;4.40;1.48;;;;;;;33.20;36.85;100224.41;6322758;28;20043;-71
2022/06/27 10:19:18;;;;;;;5.50;1.30;;;;;;;33.25;31.75;100219.91;6304481;28;20400;-71
2022/06/27 10:22:25;;;;;;;1.35;1.25;;;;;;;33.38;32.71;100216.13;6304402;28;20556;-71
2022/06/27 10:25:26;;;;;;;1.70;1.10;;;;;;;33.50;35.28;100213.34;6311411;28;20079;-71
2022/06/27 10:28:27;;;;;;;4.93;1.42;;;;;;;33.63;31.57;100201.47;6326732;28;20380;-70
2022/06/27 10:31:44;;;;;;;1.40;1.30;;;;;;;33.56;32.97;100198.06;6347647;28;20047;-71
2022/06/27 10:34:46;;;;;;;6.65;1.38;;;;;;;33.55;28.32;100201.84;6347642;28;20536;-71
2022/06/27 10:37:47;;;;;;;4.10;1.40;;;;;;;33.72;29.19;100200.81;6347521;28;20462;-71
2022/06/27 10:40:52;;;;;;;5.40;1.17;;;;;;;33.50;31.29;100206.09;6329265;28;20043;-71
2022/06/27 10:43:56;;;;;;;1.70;1.33;;;;;;;33.69;27.90;100200.50;6347229;28;20047;-71
2022/06/27 10:46:57;;;;;;;4.32;1.13;;;;;;;33.58;29.10;100195.94;6347058;28;20059;-71
2022/06/27 10:50:12;;;;;;;3.85;1.17;;;;;;;33.82;28.72;100189.38;6328733;28;20051;-71
2022/06/27 10:53:19;;;;;;;4.15;1.45;;;;;;;33.79;30.64;100189.88;6347267;28;20040;-71
2022/06/27 10:56:29;;;;;;;5.75;1.40;;;;;;;34.07;29.81;100191.66;6346887;28;20047;-71
2022/06/27 10:59:36;;;;;;;3.75;1.50;;;;;;;34.26;31.28;100192.28;6346952;28;20049;-71
2022/06/27 11:02:38;;;;;;;1.38;1.27;;;;;;;34.59;29.32;100181.66;6346806;28;20063;-72
2022/06/27 11:06:03;;;;;;;2.42;1.30;;;;;;;34.25;26.26;100184.41;6328508;28;20396;-72
2022/06/27 11:09:04;;;;;;;1.75;1.30;;;;;;;33.48;27.69;100175.75;6346744;28;20041;-71
2022/06/27 11:12:07;;;;;;;3.60;1.30;;;;;;;33.74;28.67;100170.00;6328707;28;20063;-72
2022/06/27 11:15:12;;;;;;;3.10;1.15;;;;;;;34.05;30.07;100176.75;6328325;28;20031;-71
2022/06/27 11:18:13;;;;;;;4.95;1.48;;;;;;;34.54;28.54;100174.28;6328748;28;20047;-71
2022/06/27 11:21:20;;;;;;;2.42;1.15;;;;;;;34.58;28.11;100172.72;6311517;28;20513;-71
2022/06/27 11:24:22;;;;;;;5.28;1.50;;;;;;;34.54;27.31;100171.56;6346563;28;20039;-72
2022/06/27 11:27:45;;;;;;;4.68;1.50;;;;;;;34.74;26.94;100168.34;6327892;28;20189;-72
2022/06/27 11:34:06;;;;;;;3.17;1.40;;;;;;;35.29;29.71;100174.72;6346331;28;20118;-72
2022/06/27 11:37:14;;;;;;;1.50;1.20;;;;;;;35.33;30.92;100169.63;6294762;28;20052;-71
2022/06/27 11:40:15;;;;;;;4.07;1.48;;;;;;;35.12;29.31;100159.31;6346056;28;20047;-71
2022/06/27 11:43:15;;;;;;;8.55;1.50;;;;;;;35.30;28.17;100160.91;6327897;28;20039;-71
2022/06/27 11:46:31;;;;;;;3.33;1.30;;;;;;;35.35;29.20;100162.03;6327565;28;20130;-71
2022/06/27 11:49:37;;;;;;;5.30;1.27;;;;;;;34.95;28.45;100153.16;6346013;28;20044;-71
2022/06/27 11:52:40;;;;;;;3.55;1.25;;;;;;;34.46;28.25;100150.31;6327348;28;20096;-72
2022/06/27 11:55:41;;;;;;;3.75;1.60;;;;;;;34.34;30.46;100145.00;6344575;28;20505;-72
2022/06/27 11:58:50;;;;;;;7.07;1.27;;;;;;;34.65;29.56;100140.03;6327630;28;20040;-71
2022/06/27 12:01:55;;;;;;;4.47;1.25;;;;;;;34.76;27.32;100135.56;6345805;28;20042;-72
2022/06/27 12:05:13;;;;;;;3.95;1.30;;;;;;;34.58;29.98;100144.81;6327638;28;20424;-72
2022/06/27 12:08:14;;;;;;;2.95;1.30;;;;;;;34.17;27.65;100128.78;6326218;28;20510;-72
2022/06/27 12:11:26;;;;;;;1.40;1.20;;;;;;;34.21;29.92;100134.53;6317610;28;20044;-71
2022/06/27 12:14:29;;;;;;;3.28;1.55;;;;;;;34.20;28.59;100132.88;6327733;28;20077;-72
2022/06/27 12:17:39;;;;;;;5.10;1.38;;;;;;;34.57;29.95;100132.31;6327511;28;20048;-71
2022/06/27 12:20:42;;;;;;;4.03;1.30;;;;;;;34.80;28.26;100126.72;6327693;28;20407;-72
2022/06/27 12:23:44;;;;;;;5.55;1.50;;;;;;;33.84;27.83;100125.00;6321216;28;20093;-71
2022/06/27 12:26:45;;;;;;;2.10;1.20;;;;;;;33.42;31.08;100119.94;6319847;28;20081;-71
2022/06/27 12:29:46;;;;;;;2.80;1.20;;;;;;;33.37;30.57;100111.72;6283699;28;20047;-71
2022/06/27 12:32:47;;;;;;;4.95;1.20;;;;;;;33.85;29.74;100115.81;6285162;28;20044;-71
2022/06/27 12:35:48;;;;;;;4.35;1.20;;;;;;;33.65;29.67;100119.00;6285184;28;20093;-71
2022/06/27 12:38:49;;;;;;;4.70;1.38;;;;;;;33.79;31.13;100110.56;6319697;28;20052;-72
2022/06/27 12:41:50;;;;;;;3.92;1.40;;;;;;;33.99;28.70;100112.78;6319935;28;20040;-72
2022/06/27 12:44:51;;;;;;;2.28;1.15;;;;;;;34.27;28.48;100109.19;6319872;28;20177;-71
2022/06/27 12:47:52;;;;;;;3.95;1.50;;;;;;;34.20;26.70;100105.81;6285091;28;20048;-72
2022/06/27 12:50:55;;;;;;;4.88;1.33;;;;;;;33.76;28.34;100094.81;6301935;28;20051;-71
2022/06/27 12:53:57;;;;;;;4.28;1.52;;;;;;;33.72;27.21;100105.31;6285521;28;20078;-71
2022/06/27 12:56:59;;;;;;;3.00;1.25;;;;;;;33.69;28.68;100106.63;6285051;28;20463;-71
2022/06/27 13:00:01;;;;;;;3.85;1.17;;;;;;;33.89;30.92;100105.31;6302220;28;20040;-72
2022/06/27 13:03:02;;;;;;;3.83;1.27;;;;;;;33.91;31.29;100101.31;6319514;28;20040;-72
2022/06/27 13:06:03;;;;;;;3.00;1.20;;;;;;;33.99;29.11;100093.81;6322523;28;20115;-70
2022/06/27 13:09:04;;;;;;;2.53;1.35;;;;;;;34.16;30.63;100101.97;6306230;28;20492;-70
2022/06/27 13:12:05;;;;;;;2.38;1.25;;;;;;;34.08;28.17;100098.59;6305827;28;20048;-70
2022/06/27 13:15:09;;;;;;;4.13;1.15;;;;;;;34.08;28.92;100095.06;6289714;28;20123;-70
2022/06/27 13:18:11;;;;;;;6.43;1.40;;;;;;;33.46;28.32;100091.34;6306155;28;20078;-70
2022/06/27 13:21:12;;;;;;;3.67;1.45;;;;;;;33.52;28.21;100089.53;6306039;28;20044;-70
2022/06/27 13:24:13;;;;;;;2.65;1.20;;;;;;;33.82;27.64;100083.84;6305687;28;20505;-70
2022/06/27 13:27:14;;;;;;;1.92;1.30;;;;;;;33.37;28.46;100086.56;6272413;28;20055;-70
2022/06/27 13:30:16;;;;;;;1.80;1.30;;;;;;;33.68;28.03;100079.81;6305446;28;20048;-70
2022/06/27 13:33:17;;;;;;;4.53;1.23;;;;;;;33.75;27.73;100085.06;6324104;28;20097;-70
2022/06/27 13:36:18;;;;;;;2.47;1.40;;;;;;;33.12;27.71;100074.22;6288960;28;20048;-69
2022/06/27 13:39:21;;;;;;;4.65;1.30;;;;;;;33.31;28.90;100077.53;6305456;28;20040;-70
2022/06/27 13:42:22;;;;;;;4.07;1.38;;;;;;;33.27;29.02;100079.09;6305523;28;20471;-70
2022/06/27 13:45:24;;;;;;;4.95;1.63;;;;;;;32.97;29.46;100076.59;6305139;28;20064;-69
2022/06/27 13:48:25;;;;;;;9.13;1.60;;;;;;;33.05;30.42;100079.75;6322028;28;20500;-70
2022/06/27 13:51:29;;;;;;;4.18;1.40;;;;;;;32.97;28.74;100072.03;6289070;28;20078;-70
2022/06/27 13:54:30;;;;;;;4.20;1.38;;;;;;;32.96;29.78;100072.25;6288790;28;20048;-70
2022/06/27 13:57:31;;;;;;;3.47;1.40;;;;;;;32.92;28.90;100069.22;6271705;28;20044;-70
2022/06/27 14:00:34;;;;;;;3.05;1.40;;;;;;;32.84;28.72;100083.91;6323087;28;20471;-69
2022/06/27 14:03:35;;;;;;;2.80;1.30;;;;;;;32.42;28.35;100070.63;6304964;28;20505;-69
2022/06/27 14:09:55;;;;;;;4.43;1.40;;;;;;;32.08;28.83;100061.47;6307575;28;20048;-69
2022/06/27 14:12:56;;;;;;;4.18;1.60;;;;;;;32.29;29.68;100058.19;6304819;28;20059;-69
2022/06/27 14:15:57;;;;;;;3.58;1.40;;;;;;;32.24;29.47;100063.47;6287737;28;20093;-70
2022/06/27 14:18:58;;;;;;;;;;;;;;;32.32;29.15;100052.31;6305045;28;20040;-70